createdAt,value
2023-03-21T06:03:10.778Z,96079.00
2023-03-21T06:04:11.846Z,96079.00
2023-03-21T07:23:14.959Z,96085.00
2023-03-21T07:24:14.981Z,96085.00
2023-03-21T07:25:15.073Z,96085.00
2023-03-21T07:27:15.075Z,96085.00
2023-03-21T07:28:15.106Z,96087.00
2023-03-21T07:29:15.158Z,96085.00
2023-03-21T07:30:15.198Z,96085.00
2023-03-21T07:31:15.271Z,96087.00
2023-03-21T07:32:15.234Z,96087.00
2023-03-21T07:33:15.297Z,96085.00
2023-03-21T07:34:15.364Z,96085.00
2023-03-21T07:35:15.391Z,96085.00
2023-03-21T07:36:15.604Z,96085.00
2023-03-21T07:38:15.507Z,96085.00
2023-03-21T07:39:15.604Z,96087.00
2023-03-21T07:40:15.633Z,96085.00
2023-03-21T07:43:15.762Z,96083.00
2023-03-21T07:44:15.810Z,96081.00
2023-03-21T07:45:16.687Z,96081.00
2023-03-21T07:46:15.917Z,96083.00
2023-03-21T07:50:15.850Z,96092.00
2023-03-21T07:51:16.001Z,96089.00
2023-03-21T07:52:15.829Z,96092.00
2023-03-21T07:53:15.979Z,96094.00
2023-03-21T07:54:15.842Z,96090.00
2023-03-21T07:55:15.968Z,96096.00
2023-03-21T07:57:16.373Z,96096.00
2023-03-21T07:58:15.770Z,96096.00
2023-03-21T07:59:15.737Z,96096.00
2023-03-21T08:00:15.738Z,96104.00
2023-03-21T08:01:15.899Z,96106.00
2023-03-21T08:02:14.773Z,96104.00
2023-03-21T08:03:14.730Z,96104.00
2023-03-21T08:04:15.716Z,96102.00
2023-03-21T08:05:14.718Z,96102.00
2023-03-21T08:06:15.698Z,96100.00
2023-03-21T08:07:15.715Z,96098.00
2023-03-21T08:08:15.686Z,96098.00
2023-03-21T08:09:15.672Z,96098.00
2023-03-21T08:10:15.672Z,96089.00
2023-03-21T08:11:15.707Z,96090.00
2023-03-21T08:12:15.916Z,96090.00
2023-03-21T08:13:15.680Z,96092.00
2023-03-21T08:14:14.669Z,96090.00
2023-03-21T08:15:16.093Z,96092.00
2023-03-21T08:16:15.792Z,96092.00
2023-03-21T08:17:15.672Z,96087.00
2023-03-21T08:18:15.822Z,96085.00
2023-03-21T08:19:14.714Z,96090.00
2023-03-21T08:20:15.722Z,96087.00
2023-03-21T08:21:15.717Z,96089.00
2023-03-21T08:22:15.749Z,96085.00
2023-03-21T08:23:15.755Z,96085.00
2023-03-21T08:24:15.760Z,96083.00
2023-03-21T08:25:15.802Z,96081.00
2023-03-21T08:26:15.832Z,96081.00
2023-03-21T08:27:15.821Z,96077.00
2023-03-21T08:28:14.785Z,96075.00
2023-03-21T08:29:15.821Z,96077.00
2023-03-21T08:30:15.826Z,96077.00
2023-03-21T08:31:15.886Z,96075.00
2023-03-21T08:32:14.835Z,96077.00
2023-03-21T08:33:15.914Z,96079.00
2023-03-21T08:34:15.839Z,96077.00
2023-03-21T08:35:15.848Z,96075.00
2023-03-21T08:36:15.862Z,96075.00
2023-03-21T08:37:15.827Z,96073.00
2023-03-21T08:38:15.814Z,96073.00
2023-03-21T08:39:15.808Z,96073.00
2023-03-21T08:40:14.801Z,96075.00
2023-03-21T08:41:15.847Z,96073.00
2023-03-21T08:42:14.854Z,96073.00
2023-03-21T08:43:15.155Z,96073.00
2023-03-21T08:44:15.863Z,96069.00
2023-03-21T08:45:15.965Z,96069.00
2023-03-21T08:46:15.966Z,96071.00
2023-03-21T08:47:15.851Z,96073.00
2023-03-21T08:48:15.944Z,96069.00
2023-03-21T08:49:15.849Z,96069.00
2023-03-21T08:50:16.020Z,96063.00
2023-03-21T08:51:14.861Z,96073.00
2023-03-21T08:52:15.890Z,96071.00
2023-03-21T08:53:15.879Z,96067.00
2023-03-21T08:54:14.855Z,96069.00
2023-03-21T08:55:15.888Z,96067.00
2023-03-21T08:56:15.895Z,96063.00
2023-03-21T08:57:14.891Z,96065.00
2023-03-21T08:58:14.888Z,96053.00
2023-03-21T08:59:15.980Z,96057.00
2023-03-21T09:00:15.941Z,96053.00
2023-03-21T09:01:16.094Z,96055.00
2023-03-21T09:02:16.084Z,96055.00
2023-03-21T09:03:16.129Z,96057.00
2023-03-21T09:04:16.163Z,96057.00
2023-03-21T09:05:16.291Z,96057.00
2023-03-21T09:06:15.136Z,96055.00
2023-03-21T09:07:16.175Z,96057.00
2023-03-21T09:08:15.190Z,96059.00
2023-03-21T09:09:16.166Z,96055.00
2023-03-21T09:10:21.029Z,96055.00
2023-03-21T09:11:16.152Z,96055.00
2023-03-21T09:12:15.136Z,96057.00
2023-03-21T09:13:16.131Z,96055.00
2023-03-21T09:14:16.197Z,96051.00
2023-03-21T09:15:16.167Z,96053.00
2023-03-21T09:16:16.210Z,96053.00
2023-03-21T09:17:16.116Z,96049.00
2023-03-21T09:18:15.160Z,96051.00
2023-03-21T09:19:16.091Z,96051.00
2023-03-21T09:20:20.166Z,96053.00
2023-03-21T09:21:15.084Z,96049.00
2023-03-21T09:22:16.077Z,96047.00
2023-03-21T09:23:16.125Z,96051.00
2023-03-21T09:24:15.067Z,96049.00
2023-03-21T09:25:15.185Z,96049.00
2023-03-21T09:26:16.178Z,96047.00
2023-03-21T09:27:16.053Z,96047.00
2023-03-21T09:28:16.105Z,96049.00
2023-03-21T09:29:16.172Z,96049.00
2023-03-21T09:30:15.031Z,96049.00
2023-03-21T09:31:16.253Z,96051.00
2023-03-21T09:32:16.008Z,96049.00
2023-03-21T09:33:15.039Z,96051.00
2023-03-21T09:34:15.999Z,96049.00
2023-03-21T09:35:16.107Z,96049.00
2023-03-21T09:36:16.052Z,96047.00
2023-03-21T09:37:14.977Z,96043.00
2023-03-21T09:38:15.979Z,96047.00
2023-03-21T09:39:16.026Z,96042.00
2023-03-21T09:40:15.966Z,96038.00
2023-03-21T09:41:16.355Z,96042.00
2023-03-21T09:42:16.001Z,96040.00
2023-03-21T09:43:16.111Z,96042.00
2023-03-21T09:44:15.966Z,96040.00
2023-03-21T09:45:15.976Z,96038.00
2023-03-21T09:46:15.986Z,96038.00
2023-03-21T09:47:16.010Z,96038.00
2023-03-21T09:48:15.999Z,96036.00
2023-03-21T09:49:16.103Z,96036.00
2023-03-21T09:50:16.062Z,96038.00
2023-03-21T09:51:14.973Z,96036.00
2023-03-21T09:52:15.989Z,96034.00
2023-03-21T09:53:15.114Z,96032.00
2023-03-21T09:54:16.101Z,96032.00
2023-03-21T09:55:16.322Z,96032.00
2023-03-21T09:56:16.512Z,96032.00
2023-03-21T09:57:16.124Z,96028.00
2023-03-21T09:58:16.180Z,96028.00
2023-03-21T09:59:16.197Z,96028.00
2023-03-21T10:00:15.176Z,96030.00
2023-03-21T10:01:16.311Z,96028.00
2023-03-21T10:02:15.182Z,96028.00
2023-03-21T10:03:16.337Z,96026.00
2023-03-21T10:04:16.274Z,96028.00
2023-03-21T10:05:15.286Z,96026.00
2023-03-21T10:06:16.355Z,96024.00
2023-03-21T10:07:16.416Z,96022.00
2023-03-21T10:08:16.455Z,96020.00
2023-03-21T10:09:15.507Z,96020.00
2023-03-21T10:10:16.553Z,96020.00
2023-03-21T10:11:15.621Z,96014.00
2023-03-21T10:12:15.695Z,96016.00
2023-03-21T10:13:16.780Z,96012.00
2023-03-21T10:14:15.949Z,96012.00
2023-03-21T10:15:16.901Z,96010.00
2023-03-21T10:16:15.971Z,96008.00
2023-03-21T10:17:15.854Z,96008.00
2023-03-21T10:18:16.890Z,96006.00
2023-03-21T10:19:17.103Z,96006.00
2023-03-21T10:20:17.127Z,96002.00
2023-03-21T10:21:37.263Z,96004.00
2023-03-21T10:22:17.036Z,96000.00
2023-03-21T10:23:16.026Z,96000.00
2023-03-21T10:24:17.013Z,96000.00
2023-03-21T10:25:17.050Z,95998.00
2023-03-21T10:26:17.165Z,95998.00
2023-03-21T10:27:16.014Z,95993.00
2023-03-21T10:28:17.458Z,95995.00
2023-03-21T10:29:17.072Z,95993.00
2023-03-21T10:30:16.984Z,95991.00
2023-03-21T10:31:16.139Z,95989.00
2023-03-21T10:32:16.984Z,95985.00
2023-03-21T10:33:16.964Z,95987.00
2023-03-21T10:34:16.967Z,95985.00
2023-03-21T10:35:16.974Z,95989.00
2023-03-21T10:36:16.949Z,95987.00
2023-03-21T10:37:17.011Z,95985.00
2023-03-21T10:38:16.925Z,95985.00
2023-03-21T10:39:16.914Z,95985.00
2023-03-21T10:40:16.981Z,95987.00
2023-03-21T10:41:17.019Z,95987.00
2023-03-21T10:42:15.898Z,95985.00
2023-03-21T10:43:16.880Z,95987.00
2023-03-21T10:44:16.897Z,95985.00
2023-03-21T10:45:15.879Z,95985.00
2023-03-21T10:46:17.181Z,95985.00
2023-03-21T10:47:16.098Z,95983.00
2023-03-21T10:48:18.155Z,95981.00
2023-03-21T10:49:17.084Z,95983.00
2023-03-21T10:50:16.894Z,95979.00
2023-03-21T10:51:16.044Z,95977.00
2023-03-21T10:52:16.811Z,95977.00
2023-03-21T10:53:16.804Z,95977.00
2023-03-21T10:54:16.807Z,95977.00
2023-03-21T10:55:16.826Z,95977.00
2023-03-21T10:56:16.856Z,95975.00
2023-03-21T10:57:16.875Z,95975.00
2023-03-21T10:58:16.929Z,95975.00
2023-03-21T10:59:18.369Z,95975.00
2023-03-21T11:00:16.997Z,95977.00
2023-03-21T11:01:17.044Z,95969.00
2023-03-21T11:02:17.047Z,95967.00
2023-03-21T11:03:16.964Z,95969.00
2023-03-21T11:04:15.971Z,95965.00
2023-03-21T11:05:19.395Z,95969.00
2023-03-21T11:06:16.949Z,95969.00
2023-03-21T11:07:16.963Z,95969.00
2023-03-21T11:08:16.944Z,95965.00
2023-03-21T11:09:16.918Z,95967.00
2023-03-21T11:10:19.945Z,95965.00
2023-03-21T11:11:18.246Z,95957.00
2023-03-21T11:12:16.907Z,95957.00
2023-03-21T11:13:15.902Z,95957.00
2023-03-21T11:14:16.904Z,95959.00
2023-03-21T11:15:16.959Z,95957.00
2023-03-21T11:16:17.133Z,95955.00
2023-03-21T11:17:16.064Z,95955.00
2023-03-21T11:18:17.184Z,95955.00
2023-03-21T11:19:17.281Z,95949.00
2023-03-21T11:20:16.230Z,95949.00
2023-03-21T11:21:17.302Z,95948.00
2023-03-21T11:22:17.355Z,95948.00
2023-03-21T11:23:20.104Z,95946.00
2023-03-21T11:24:17.418Z,95948.00
2023-03-21T11:25:17.488Z,95948.00
2023-03-21T11:26:16.430Z,95944.00
2023-03-21T11:27:17.401Z,95942.00
2023-03-21T11:28:17.388Z,95944.00
2023-03-21T11:29:18.377Z,95940.00
2023-03-21T11:30:16.563Z,95938.00
2023-03-21T11:31:17.796Z,95936.00
2023-03-21T11:32:16.679Z,95932.00
2023-03-21T11:33:17.745Z,95934.00
2023-03-21T11:34:17.853Z,95930.00
2023-03-21T11:35:19.738Z,95932.00
2023-03-21T11:36:16.892Z,95930.00
2023-03-21T11:37:17.851Z,95926.00
2023-03-21T11:38:17.861Z,95928.00
2023-03-21T11:39:17.978Z,95926.00
2023-03-21T11:40:17.845Z,95916.00
2023-03-21T11:42:17.035Z,95914.00
2023-03-21T11:43:17.839Z,95914.00
2023-03-21T11:44:17.821Z,95910.00
2023-03-21T11:45:17.803Z,95910.00
2023-03-21T11:46:17.848Z,95906.00
2023-03-21T11:47:18.037Z,95908.00
2023-03-21T11:48:17.849Z,95904.00
2023-03-21T11:49:17.776Z,95908.00
2023-03-21T11:50:17.789Z,95900.00
2023-03-21T11:52:17.036Z,95904.00
2023-03-21T11:53:17.755Z,95900.00
2023-03-21T11:54:17.754Z,95896.00
2023-03-21T11:55:18.123Z,95896.00
2023-03-21T11:56:17.724Z,95893.00
2023-03-21T11:57:17.718Z,95893.00
2023-03-21T11:58:17.998Z,95893.00
2023-03-21T12:00:17.845Z,95883.00
2023-03-21T12:02:17.879Z,95881.00
2023-03-21T12:03:17.729Z,95881.00
2023-03-21T12:04:17.767Z,95881.00
2023-03-21T12:05:17.647Z,95877.00
2023-03-21T12:06:16.655Z,95873.00
2023-03-21T12:07:17.696Z,95873.00
2023-03-21T12:08:17.733Z,95869.00
2023-03-21T12:09:18.582Z,95859.00
2023-03-21T12:10:17.636Z,95865.00
2023-03-21T12:11:17.641Z,95861.00
2023-03-21T12:12:20.215Z,95859.00
2023-03-21T12:13:17.635Z,95859.00
2023-03-21T12:14:17.596Z,95855.00
2023-03-21T12:15:17.632Z,95855.00
2023-03-21T12:16:17.646Z,95853.00
2023-03-21T12:17:17.571Z,95851.00
2023-03-21T12:18:17.578Z,95849.00
2023-03-21T12:19:17.580Z,95849.00
2023-03-21T12:20:17.593Z,95846.00
2023-03-21T12:21:17.681Z,95844.00
2023-03-21T12:22:17.609Z,95842.00
2023-03-21T12:23:17.661Z,95842.00
2023-03-21T12:24:17.533Z,95836.00
2023-03-21T12:25:17.527Z,95838.00
2023-03-21T12:26:17.517Z,95834.00
2023-03-21T12:27:16.564Z,95832.00
2023-03-21T12:28:30.131Z,95828.00
2023-03-21T12:29:17.527Z,95830.00
2023-03-21T12:30:17.550Z,95828.00
2023-03-21T12:31:17.578Z,95828.00
2023-03-21T12:32:17.476Z,95824.00
2023-03-21T12:33:17.482Z,95826.00
2023-03-21T12:34:17.463Z,95822.00
2023-03-21T12:35:17.456Z,95826.00
2023-03-21T12:36:17.534Z,95820.00
2023-03-21T12:37:17.567Z,95820.00
2023-03-21T12:38:16.445Z,95818.00
2023-03-21T12:39:17.439Z,95814.00
2023-03-21T12:40:17.434Z,95812.00
2023-03-21T12:41:16.416Z,95810.00
2023-03-21T12:42:17.543Z,95808.00
2023-03-21T12:43:17.543Z,95806.00
2023-03-21T12:44:17.390Z,95808.00
2023-03-21T12:45:16.384Z,95806.00
2023-03-21T12:46:17.437Z,95808.00
2023-03-21T12:47:17.378Z,95808.00
2023-03-21T12:48:17.502Z,95808.00
2023-03-21T12:49:17.391Z,95808.00
2023-03-21T12:50:17.358Z,95802.00
2023-03-21T12:51:16.342Z,95802.00
2023-03-21T12:52:17.358Z,95801.00
2023-03-21T12:53:17.339Z,95801.00
2023-03-21T12:54:17.329Z,95795.00
2023-03-21T12:55:17.337Z,95795.00
2023-03-21T12:56:17.310Z,95797.00
2023-03-21T12:57:17.308Z,95793.00
2023-03-21T12:58:18.046Z,95795.00
2023-03-21T12:59:17.413Z,95793.00
2023-03-21T13:00:17.287Z,95793.00
2023-03-21T13:01:17.361Z,95789.00
2023-03-21T13:02:17.279Z,95791.00
2023-03-21T13:03:18.293Z,95791.00
2023-03-21T13:04:17.309Z,95787.00
2023-03-21T13:05:16.262Z,95789.00
2023-03-21T13:06:16.256Z,95785.00
2023-03-21T13:07:17.240Z,95787.00
2023-03-21T13:08:17.238Z,95787.00
2023-03-21T13:09:21.222Z,95785.00
2023-03-21T13:10:17.230Z,95785.00
2023-03-21T13:11:17.204Z,95781.00
2023-03-21T13:12:17.196Z,95783.00
2023-03-21T13:13:17.184Z,95781.00
2023-03-21T13:14:17.177Z,95779.00
2023-03-21T13:15:23.649Z,95777.00
2023-03-21T13:16:17.240Z,95775.00
2023-03-21T13:17:17.162Z,95773.00
2023-03-21T13:18:17.169Z,95771.00
2023-03-21T13:19:17.142Z,95767.00
2023-03-21T13:20:17.148Z,95771.00
2023-03-21T13:21:17.138Z,95767.00
2023-03-21T13:22:17.156Z,95763.00
2023-03-21T13:23:17.144Z,95761.00
2023-03-21T13:24:17.122Z,95761.00
2023-03-21T13:25:17.116Z,95761.00
2023-03-21T13:26:17.107Z,95759.00
2023-03-21T13:27:16.113Z,95757.00
2023-03-21T13:28:16.082Z,95757.00
2023-03-21T13:29:17.092Z,95759.00
2023-03-21T13:30:17.207Z,95759.00
2023-03-21T13:31:17.151Z,95761.00
2023-03-21T13:32:17.146Z,95761.00
2023-03-21T13:33:17.063Z,95759.00
2023-03-21T13:34:17.054Z,95759.00
2023-03-21T13:35:16.053Z,95759.00
2023-03-21T13:36:17.095Z,95755.00
2023-03-21T13:37:16.028Z,95755.00
2023-03-21T13:38:17.046Z,95755.00
2023-03-21T13:39:17.057Z,95757.00
2023-03-21T13:40:17.022Z,95752.00
2023-03-21T13:41:17.021Z,95755.00
2023-03-21T13:42:17.006Z,95755.00
2023-03-21T13:43:25.505Z,95752.00
2023-03-21T13:44:17.010Z,95752.00
2023-03-21T13:45:16.992Z,95750.00
2023-03-21T13:46:17.021Z,95752.00
2023-03-21T13:47:16.094Z,95746.00
2023-03-21T13:48:17.035Z,95748.00
2023-03-21T13:49:15.953Z,95748.00
2023-03-21T13:50:16.969Z,95744.00
2023-03-21T13:51:16.943Z,95740.00
2023-03-21T13:52:16.933Z,95744.00
2023-03-21T13:53:16.951Z,95738.00
2023-03-21T13:54:16.931Z,95736.00
2023-03-21T13:55:16.922Z,95734.00
2023-03-21T13:56:15.903Z,95732.00
2023-03-21T13:57:16.920Z,95730.00
2023-03-21T13:58:16.913Z,95728.00
2023-03-21T13:59:16.911Z,95730.00
2023-03-21T14:00:16.884Z,95728.00
2023-03-21T14:01:16.975Z,95728.00
2023-03-21T14:02:16.875Z,95726.00
2023-03-21T14:03:16.036Z,95724.00
2023-03-21T14:04:16.857Z,95724.00
2023-03-21T14:05:16.896Z,95726.00
2023-03-21T14:06:16.843Z,95726.00
2023-03-21T14:07:16.841Z,95726.00
2023-03-21T14:09:16.829Z,95720.00
2023-03-21T14:10:16.810Z,95722.00
2023-03-21T14:11:16.824Z,95720.00
2023-03-21T14:12:16.802Z,95722.00
2023-03-21T14:13:15.795Z,95722.00
2023-03-21T14:14:16.790Z,95718.00
2023-03-21T14:15:17.285Z,95720.00
2023-03-21T14:17:16.779Z,95718.00
2023-03-21T14:18:28.293Z,95718.00
2023-03-21T14:19:16.882Z,95718.00
2023-03-21T14:20:16.749Z,95716.00
2023-03-21T14:21:23.430Z,95716.00
2023-03-21T14:22:16.749Z,95716.00
2023-03-21T14:23:16.751Z,95716.00
2023-03-21T14:24:16.735Z,95716.00
2023-03-21T14:25:15.731Z,95714.00
2023-03-21T14:26:16.733Z,95716.00
2023-03-21T14:27:16.711Z,95710.00
2023-03-21T14:28:15.697Z,95712.00
2023-03-21T14:29:25.537Z,95712.00
2023-03-21T14:30:16.688Z,95714.00
2023-03-21T14:31:16.772Z,95712.00
2023-03-21T14:32:16.704Z,95712.00
2023-03-21T14:33:15.712Z,95708.00
2023-03-21T14:34:15.657Z,95708.00
2023-03-21T14:35:16.867Z,95712.00
2023-03-21T14:36:16.731Z,95707.00
2023-03-21T14:37:16.633Z,95707.00
2023-03-21T14:38:15.632Z,95707.00
2023-03-21T14:39:15.630Z,95705.00
2023-03-21T14:40:15.630Z,95699.00
2023-03-21T14:41:15.618Z,95703.00
2023-03-21T14:42:15.654Z,95701.00
2023-03-21T14:43:16.601Z,95701.00
2023-03-21T14:44:15.589Z,95699.00
2023-03-21T14:45:17.866Z,95697.00
2023-03-21T14:46:16.665Z,95699.00
2023-03-21T14:47:16.567Z,95697.00
2023-03-21T14:48:16.653Z,95697.00
2023-03-21T14:49:15.555Z,95691.00
2023-03-21T14:50:16.545Z,95691.00
2023-03-21T14:51:15.679Z,95689.00
2023-03-21T14:52:16.551Z,95689.00
2023-03-21T14:53:16.536Z,95691.00
2023-03-21T14:54:16.537Z,95689.00
2023-03-21T14:55:16.524Z,95689.00
2023-03-21T14:56:16.510Z,95689.00
2023-03-21T14:57:16.508Z,95687.00
2023-03-21T14:58:16.500Z,95683.00
2023-03-21T14:59:16.487Z,95683.00
2023-03-21T15:00:16.511Z,95685.00
2023-03-21T15:01:16.587Z,95683.00
2023-03-21T15:02:15.628Z,95685.00
2023-03-21T15:03:16.458Z,95687.00
2023-03-21T15:04:16.461Z,95687.00
2023-03-21T15:05:16.509Z,95691.00
2023-03-21T15:06:16.431Z,95689.00
2023-03-21T15:07:16.547Z,95689.00
2023-03-21T15:08:16.447Z,95689.00
2023-03-21T15:09:16.408Z,95689.00
2023-03-21T15:10:16.411Z,95691.00
2023-03-21T15:11:16.403Z,95691.00
2023-03-21T15:12:16.402Z,95691.00
2023-03-21T15:13:16.424Z,95691.00
2023-03-21T15:14:16.385Z,95693.00
2023-03-21T15:15:15.370Z,95691.00
2023-03-21T15:16:16.430Z,95693.00
2023-03-21T15:17:16.351Z,95693.00
2023-03-21T15:18:15.351Z,95691.00
2023-03-21T15:19:16.355Z,95691.00
2023-03-21T15:20:16.361Z,95691.00
2023-03-21T15:21:16.333Z,95693.00
2023-03-21T15:22:15.325Z,95689.00
2023-03-21T15:23:16.456Z,95689.00
2023-03-21T15:24:15.320Z,95685.00
2023-03-21T15:25:15.299Z,95689.00
2023-03-21T15:26:16.321Z,95689.00
2023-03-21T15:27:16.361Z,95683.00
2023-03-21T15:28:16.395Z,95683.00
2023-03-21T15:29:15.480Z,95683.00
2023-03-21T15:30:16.458Z,95683.00
2023-03-21T15:31:16.566Z,95685.00
2023-03-21T15:32:15.523Z,95685.00
2023-03-21T15:33:15.593Z,95683.00
2023-03-21T15:34:16.620Z,95681.00
2023-03-21T15:35:16.655Z,95683.00
2023-03-21T15:36:15.749Z,95683.00
2023-03-21T15:37:16.742Z,95681.00
2023-03-21T15:38:16.801Z,95681.00
2023-03-21T15:39:16.949Z,95683.00
2023-03-21T15:40:16.860Z,95685.00
2023-03-21T15:41:16.917Z,95681.00
2023-03-21T15:42:16.961Z,95681.00
2023-03-21T15:43:17.015Z,95681.00
2023-03-21T15:44:17.069Z,95679.00
2023-03-21T15:45:17.107Z,95681.00
2023-03-21T15:46:17.222Z,95681.00
2023-03-21T15:47:17.225Z,95683.00
2023-03-21T15:48:17.307Z,95681.00
2023-03-21T15:49:17.312Z,95681.00
2023-03-21T15:50:17.361Z,95679.00
2023-03-21T15:51:17.408Z,95679.00
2023-03-21T15:52:16.462Z,95679.00
2023-03-21T15:53:17.508Z,95679.00
2023-03-21T15:54:17.557Z,95677.00
2023-03-21T15:55:17.722Z,95679.00
2023-03-21T15:56:16.650Z,95677.00
2023-03-21T15:57:17.703Z,95677.00
2023-03-21T15:58:17.749Z,95677.00
2023-03-21T15:59:17.799Z,95679.00
2023-03-21T16:00:16.848Z,95679.00
2023-03-21T16:01:17.923Z,95677.00
2023-03-21T16:02:17.945Z,95681.00
2023-03-21T16:03:18.068Z,95679.00
2023-03-21T16:04:18.050Z,95685.00
2023-03-21T16:05:17.092Z,95679.00
2023-03-21T16:06:17.177Z,95681.00
2023-03-21T16:07:18.178Z,95681.00
2023-03-21T16:08:18.228Z,95685.00
2023-03-21T16:09:18.300Z,95685.00
2023-03-21T16:10:18.334Z,95689.00
2023-03-21T16:11:17.505Z,95691.00
2023-03-21T16:12:19.018Z,95687.00
2023-03-21T16:13:17.501Z,95687.00
2023-03-21T16:14:18.637Z,95687.00
2023-03-21T16:15:18.573Z,95687.00
2023-03-21T16:16:18.720Z,95687.00
2023-03-21T16:17:18.663Z,95685.00
2023-03-21T16:18:18.704Z,95689.00
2023-03-21T16:19:18.759Z,95685.00
2023-03-21T16:20:18.800Z,95687.00
2023-03-21T16:21:18.871Z,95687.00
2023-03-21T16:22:18.898Z,95689.00
2023-03-21T16:23:18.940Z,95691.00
2023-03-21T16:24:18.992Z,95691.00
2023-03-21T16:25:18.037Z,95691.00
2023-03-21T16:26:19.094Z,95691.00
2023-03-21T16:27:19.171Z,95691.00
2023-03-21T16:28:19.182Z,95691.00
2023-03-21T16:29:19.224Z,95693.00
